(°C)
(°C)
Δ
Δ
Δ
Δ
Δ
Δ
Δ
(χλμ / ω)
17-27
15-24
14-23
14-23
14-24
16-25
15-25
(χιλιοστά)
0
0
0
0
0
0
0
(%)
6
4
2
0
0
0
0

Ανύψωση ήλιου

/ -14.4°
sun-icon
UV 3
05:00
20:59
Φθίνων αμφίκυρτος (φάση σελήνης) (327°)
03:49
17:51

METAR για 50.1°Β 14.27°Α (LKPR)

Χρόνος Συνθήκες Θερμοκρασία/
Σημείο δρόσου
Άνεμος Ορατότητα Καιρός Νέφη Πίεση Αλλαγή Ανεπεξέργαστο
VFR 10°C / 7°C 250º 9kt >10km - Clouds and Visibility OK 1017 No Significant change LKPR 272030Z 25009KT CAVOK 10/07 Q1017 NOSIG
VFR 11°C / 8°C 250º 9kt >10km - Clouds and Visibility OK 1017 No Significant change LKPR 272000Z 25009KT CAVOK 11/08 Q1017 NOSIG
VFR 12°C / 8°C 250º 9kt >10km - Clouds and Visibility OK 1016 No Significant change LKPR 271930Z 25009KT CAVOK 12/08 Q1016 NOSIG
VFR 12°C / 8°C 240º 10kt >10km - Few Clouds 2000ft 1016 No Significant change LKPR 271900Z 24010KT 9999 FEW020 12/08 Q1016 NOSIG
VFR 13°C / 8°C 260º 10kt >10km - Few Clouds 2200ft 1016 No Significant change LKPR 271830Z 26010KT 9999 FEW022 13/08 Q1016 NOSIG
VFR 13°C / 11°C 260º 9kt >10km - Few Clouds 1500ft 1016 No Significant change LKPR 271800Z 26009KT 9999 FEW015 13/11 Q1016 NOSIG
VFR 14°C / 11°C 260º 9kt >10km - Few Clouds 1500ft
Scattered Clouds 4800ft
1016 No Significant change LKPR 271730Z 26009KT 9999 FEW015 SCT048 14/11 Q1016 NOSIG
VFR 14°C / 11°C 260º 10kt >10km - Few Clouds 1500ft 1016 No Significant change LKPR 271700Z 26010KT 9999 FEW015 14/11 Q1016 NOSIG
VFR 14°C / 11°C 260º 13kt >10km - Few Clouds 1400ft 1016 No Significant change LKPR 271630Z 26013KT 9999 FEW014 14/11 Q1016 NOSIG
VFR 13°C / 10°C 270º 12kt >10km - Few Clouds 1400ft 1016 No Significant change LKPR 271600Z 27012KT 9999 FEW014 13/10 Q1016 NOSIG
VFR 13°C / 10°C 280º 13kt >10km Light Rain 1.00mm precipitation Vertical Visibility of 0ft.
Scattered Clouds 4500ft
1016 No Significant change LKPR 271530Z 28013KT 9999 -RA FEW010 SCT045 13/10 Q1016 NOSIG
VFR 12°C / 11°C 270º 9kt >10km Showers Rain 3.00mm precipitation Vertical Visibility of 0ft.
Few Clouds 2500ft
Scattered Clouds 4000ft
1017 No Significant change LKPR 271500Z 27009KT 9999 SHRA FEW012 FEW025TCU SCT040 12/11 Q1017 NOSIG
VFR 12°C / 11°C 300º 8kt >10km - Few Clouds 1200ft
Few Clouds 2500ft
Broken Clouds 3500ft
1017 Temporary: Showers Rain . LKPR 271430Z 30008KT 9999 FEW012 FEW025TCU BKN035 12/11 Q1017 TEMPO SHRA
VFR 11°C / 10°C 310º 11kt >10km Light Rain 1.00mm precipitation Vertical Visibility of 0ft.
Broken Clouds 3500ft
1017 Temporary: Visibility 6000. Showers Rain . Scattered Clouds 1200ft. Towering Cumulus LKPR 271400Z 31011KT 9999 -RA FEW012 BKN035 11/10 Q1017 TEMPO 6000 SHRA SCT012TCU
MVFR 12°C / 10°C 320º 14kt >10km Light Rain 1.00mm precipitation Vertical Visibility of 0ft.
Overcast 2500ft
1017 Temporary: Wind 320º 14kt. Gust 28KT. Visibility 6000. Showers Rain . Scattered Clouds 1200ft. Towering Cumulus LKPR 271330Z 32014KT 9999 -RA FEW012 OVC025 12/10 Q1017 TEMPO 32014G28KT 6000 SHRA SCT012TCU
VFR 12°C / 11°C 320º 12kt >10km Light Showers Rain 3.00mm precipitation Vertical Visibility of 0ft.
Scattered Clouds 2100ft
Broken Clouds 3200ft
1017 No Significant change LKPR 271300Z 32012KT 9999 -SHRA FEW008 SCT021 BKN032 12/11 Q1017 NOSIG
MVFR 12°C / 11°C 320º 13kt >10km Light Showers Rain 3.00mm precipitation Vertical Visibility of 0ft.
Few Clouds 1800ft
Broken Clouds 2200ft
1017 Temporary: Wind 320º 16kt. Gust 32KT. Visibility 5000. Showers Rain . Scattered Clouds 1800ft. Towering Cumulus LKPR 271230Z 32013KT 9999 -SHRA SCT006 FEW018TCU BKN022 12/11 Q1017 TEMPO 32016G32KT 5000 SHRA SCT018TCU
MVFR 16°C / 11°C 260º 17kt >10km Light Showers Rain 3.00mm precipitation Vertical Visibility of 0ft.
Broken Clouds 3000ft
1016 Temporary: Wind 290º 18kt. Gust 34KT. Visibility 6000. Showers Rain . Scattered Clouds 1000ft. Towering Cumulus LKPR 271200Z 26017KT 9999 -SHRA FEW010TCU BKN030 16/11 Q1016 TEMPO 29018G34KT 6000 SHRA SCT010TCU
VFR 18°C / 12°C 260º 15kt >10km - Scattered Clouds 3200ft 1016 Temporary: Wind 290º 18kt. Gust 34KT. Showers Rain . Broken Clouds 2000ft. LKPR 271130Z 26015KT 9999 SCT032 18/12 Q1016 TEMPO 29018G34KT SHRA BKN020
VFR 16°C / 12°C 240º 12kt >10km Light Rain 1.00mm precipitation Vertical Visibility of 0ft.
Broken Clouds 4500ft
1017 Temporary: Wind 280º 18kt. Gust 32KT. Broken Clouds 2000ft. LKPR 271100Z 24012KT 9999 -RA SCT030 BKN045 16/12 Q1017 TEMPO 28018G32KT BKN020
VFR 16°C / 11°C 240º 13kt >10km Light Rain 1.00mm precipitation Vertical Visibility of 0ft. 1017 Temporary: Wind 280º 18kt. Gust 32KT. Broken Clouds 2000ft. LKPR 271030Z 24013KT 9999 -RA BKN032 16/11 Q1017 TEMPO 28018G32KT BKN020
VFR 17°C / 11°C 250º 14kt >10km - Broken Clouds 3500ft 1017 Temporary: Wind 280º 18kt. Gust 36KT. Light Rain . Broken Clouds 2000ft. LKPR 271000Z 25014KT 9999 BKN035 17/11 Q1017 TEMPO 28018G36KT -RA BKN020
VFR 16°C / 11°C 240º 14kt >10km - Broken Clouds 3200ft 1017 No Significant change LKPR 270930Z 24014KT 9999 BKN032 16/11 Q1017 NOSIG
VFR 16°C / 10°C 240º 16kt >10km - Broken Clouds 3500ft 1017 No Significant change LKPR 270900Z 24016KT 9999 BKN035 16/10 Q1017 NOSIG

VFR

10°C / 7°C

[Περισσότερο]
Άνεμος 250º 9kt
Ορατότητα >10km
Καιρός -
Νέφη Clouds and Visibility OK
Πίεση 1017
Αλλαγή No Significant change
Ανεπεξέργαστο LKPR 272030Z 25009KT CAVOK 10/07 Q1017 NOSIG

VFR

11°C / 8°C

[Περισσότερο]
Άνεμος 250º 9kt
Ορατότητα >10km
Καιρός -
Νέφη Clouds and Visibility OK
Πίεση 1017
Αλλαγή No Significant change
Ανεπεξέργαστο LKPR 272000Z 25009KT CAVOK 11/08 Q1017 NOSIG

VFR

12°C / 8°C

[Περισσότερο]
Άνεμος 250º 9kt
Ορατότητα >10km
Καιρός -
Νέφη Clouds and Visibility OK
Πίεση 1016
Αλλαγή No Significant change
Ανεπεξέργαστο LKPR 271930Z 25009KT CAVOK 12/08 Q1016 NOSIG

VFR

12°C / 8°C

[Περισσότερο]
Άνεμος 240º 10kt
Ορατότητα >10km
Καιρός -
Νέφη Few Clouds 2000ft
Πίεση 1016
Αλλαγή No Significant change
Ανεπεξέργαστο LKPR 271900Z 24010KT 9999 FEW020 12/08 Q1016 NOSIG

VFR

13°C / 8°C

[Περισσότερο]
Άνεμος 260º 10kt
Ορατότητα >10km
Καιρός -
Νέφη Few Clouds 2200ft
Πίεση 1016
Αλλαγή No Significant change
Ανεπεξέργαστο LKPR 271830Z 26010KT 9999 FEW022 13/08 Q1016 NOSIG

VFR

13°C / 11°C

[Περισσότερο]
Άνεμος 260º 9kt
Ορατότητα >10km
Καιρός -
Νέφη Few Clouds 1500ft
Πίεση 1016
Αλλαγή No Significant change
Ανεπεξέργαστο LKPR 271800Z 26009KT 9999 FEW015 13/11 Q1016 NOSIG

VFR

14°C / 11°C

[Περισσότερο]
Άνεμος 260º 9kt
Ορατότητα >10km
Καιρός -
Νέφη Few Clouds 1500ft
Scattered Clouds 4800ft
Πίεση 1016
Αλλαγή No Significant change
Ανεπεξέργαστο LKPR 271730Z 26009KT 9999 FEW015 SCT048 14/11 Q1016 NOSIG

VFR

14°C / 11°C

[Περισσότερο]
Άνεμος 260º 10kt
Ορατότητα >10km
Καιρός -
Νέφη Few Clouds 1500ft
Πίεση 1016
Αλλαγή No Significant change
Ανεπεξέργαστο LKPR 271700Z 26010KT 9999 FEW015 14/11 Q1016 NOSIG

VFR

14°C / 11°C

[Περισσότερο]
Άνεμος 260º 13kt
Ορατότητα >10km
Καιρός -
Νέφη Few Clouds 1400ft
Πίεση 1016
Αλλαγή No Significant change
Ανεπεξέργαστο LKPR 271630Z 26013KT 9999 FEW014 14/11 Q1016 NOSIG

VFR

13°C / 10°C

[Περισσότερο]
Άνεμος 270º 12kt
Ορατότητα >10km
Καιρός -
Νέφη Few Clouds 1400ft
Πίεση 1016
Αλλαγή No Significant change
Ανεπεξέργαστο LKPR 271600Z 27012KT 9999 FEW014 13/10 Q1016 NOSIG

VFR

13°C / 10°C

[Περισσότερο]
Άνεμος 280º 13kt
Ορατότητα >10km
Καιρός Light Rain 1.00mm precipitation
Νέφη Vertical Visibility of 0ft.
Scattered Clouds 4500ft
Πίεση 1016
Αλλαγή No Significant change
Ανεπεξέργαστο LKPR 271530Z 28013KT 9999 -RA FEW010 SCT045 13/10 Q1016 NOSIG

VFR

12°C / 11°C

[Περισσότερο]
Άνεμος 270º 9kt
Ορατότητα >10km
Καιρός Showers Rain 3.00mm precipitation
Νέφη Vertical Visibility of 0ft.
Few Clouds 2500ft
Scattered Clouds 4000ft
Πίεση 1017
Αλλαγή No Significant change
Ανεπεξέργαστο LKPR 271500Z 27009KT 9999 SHRA FEW012 FEW025TCU SCT040 12/11 Q1017 NOSIG

VFR

12°C / 11°C

[Περισσότερο]
Άνεμος 300º 8kt
Ορατότητα >10km
Καιρός -
Νέφη Few Clouds 1200ft
Few Clouds 2500ft
Broken Clouds 3500ft
Πίεση 1017
Αλλαγή Temporary: Showers Rain .
Ανεπεξέργαστο LKPR 271430Z 30008KT 9999 FEW012 FEW025TCU BKN035 12/11 Q1017 TEMPO SHRA

VFR

11°C / 10°C

[Περισσότερο]
Άνεμος 310º 11kt
Ορατότητα >10km
Καιρός Light Rain 1.00mm precipitation
Νέφη Vertical Visibility of 0ft.
Broken Clouds 3500ft
Πίεση 1017
Αλλαγή Temporary: Visibility 6000. Showers Rain . Scattered Clouds 1200ft. Towering Cumulus
Ανεπεξέργαστο LKPR 271400Z 31011KT 9999 -RA FEW012 BKN035 11/10 Q1017 TEMPO 6000 SHRA SCT012TCU

MVFR

12°C / 10°C

[Περισσότερο]
Άνεμος 320º 14kt
Ορατότητα >10km
Καιρός Light Rain 1.00mm precipitation
Νέφη Vertical Visibility of 0ft.
Overcast 2500ft
Πίεση 1017
Αλλαγή Temporary: Wind 320º 14kt. Gust 28KT. Visibility 6000. Showers Rain . Scattered Clouds 1200ft. Towering Cumulus
Ανεπεξέργαστο LKPR 271330Z 32014KT 9999 -RA FEW012 OVC025 12/10 Q1017 TEMPO 32014G28KT 6000 SHRA SCT012TCU

VFR

12°C / 11°C

[Περισσότερο]
Άνεμος 320º 12kt
Ορατότητα >10km
Καιρός Light Showers Rain 3.00mm precipitation
Νέφη Vertical Visibility of 0ft.
Scattered Clouds 2100ft
Broken Clouds 3200ft
Πίεση 1017
Αλλαγή No Significant change
Ανεπεξέργαστο LKPR 271300Z 32012KT 9999 -SHRA FEW008 SCT021 BKN032 12/11 Q1017 NOSIG

MVFR

12°C / 11°C

[Περισσότερο]
Άνεμος 320º 13kt
Ορατότητα >10km
Καιρός Light Showers Rain 3.00mm precipitation
Νέφη Vertical Visibility of 0ft.
Few Clouds 1800ft
Broken Clouds 2200ft
Πίεση 1017
Αλλαγή Temporary: Wind 320º 16kt. Gust 32KT. Visibility 5000. Showers Rain . Scattered Clouds 1800ft. Towering Cumulus
Ανεπεξέργαστο LKPR 271230Z 32013KT 9999 -SHRA SCT006 FEW018TCU BKN022 12/11 Q1017 TEMPO 32016G32KT 5000 SHRA SCT018TCU

MVFR

16°C / 11°C

[Περισσότερο]
Άνεμος 260º 17kt
Ορατότητα >10km
Καιρός Light Showers Rain 3.00mm precipitation
Νέφη Vertical Visibility of 0ft.
Broken Clouds 3000ft
Πίεση 1016
Αλλαγή Temporary: Wind 290º 18kt. Gust 34KT. Visibility 6000. Showers Rain . Scattered Clouds 1000ft. Towering Cumulus
Ανεπεξέργαστο LKPR 271200Z 26017KT 9999 -SHRA FEW010TCU BKN030 16/11 Q1016 TEMPO 29018G34KT 6000 SHRA SCT010TCU

VFR

18°C / 12°C

[Περισσότερο]
Άνεμος 260º 15kt
Ορατότητα >10km
Καιρός -
Νέφη Scattered Clouds 3200ft
Πίεση 1016
Αλλαγή Temporary: Wind 290º 18kt. Gust 34KT. Showers Rain . Broken Clouds 2000ft.
Ανεπεξέργαστο LKPR 271130Z 26015KT 9999 SCT032 18/12 Q1016 TEMPO 29018G34KT SHRA BKN020

VFR

16°C / 12°C

[Περισσότερο]
Άνεμος 240º 12kt
Ορατότητα >10km
Καιρός Light Rain 1.00mm precipitation
Νέφη Vertical Visibility of 0ft.
Broken Clouds 4500ft
Πίεση 1017
Αλλαγή Temporary: Wind 280º 18kt. Gust 32KT. Broken Clouds 2000ft.
Ανεπεξέργαστο LKPR 271100Z 24012KT 9999 -RA SCT030 BKN045 16/12 Q1017 TEMPO 28018G32KT BKN020

VFR

16°C / 11°C

[Περισσότερο]
Άνεμος 240º 13kt
Ορατότητα >10km
Καιρός Light Rain 1.00mm precipitation
Νέφη Vertical Visibility of 0ft.
Πίεση 1017
Αλλαγή Temporary: Wind 280º 18kt. Gust 32KT. Broken Clouds 2000ft.
Ανεπεξέργαστο LKPR 271030Z 24013KT 9999 -RA BKN032 16/11 Q1017 TEMPO 28018G32KT BKN020

VFR

17°C / 11°C

[Περισσότερο]
Άνεμος 250º 14kt
Ορατότητα >10km
Καιρός -
Νέφη Broken Clouds 3500ft
Πίεση 1017
Αλλαγή Temporary: Wind 280º 18kt. Gust 36KT. Light Rain . Broken Clouds 2000ft.
Ανεπεξέργαστο LKPR 271000Z 25014KT 9999 BKN035 17/11 Q1017 TEMPO 28018G36KT -RA BKN020

VFR

16°C / 11°C

[Περισσότερο]
Άνεμος 240º 14kt
Ορατότητα >10km
Καιρός -
Νέφη Broken Clouds 3200ft
Πίεση 1017
Αλλαγή No Significant change
Ανεπεξέργαστο LKPR 270930Z 24014KT 9999 BKN032 16/11 Q1017 NOSIG

VFR

16°C / 10°C

[Περισσότερο]
Άνεμος 240º 16kt
Ορατότητα >10km
Καιρός -
Νέφη Broken Clouds 3500ft
Πίεση 1017
Αλλαγή No Significant change
Ανεπεξέργαστο LKPR 270900Z 24016KT 9999 BKN035 16/10 Q1017 NOSIG

TAF για 50.1°Β 14.27°Α (LKPR)

From till


From till Wind 270º 10kt. Visibility 10km or more. Broken Clouds 2500ft.
Becoming from till Wind 290º 8kt. Visibility 10km or more. Scattered Clouds 4500ft.
Temporarly from till Wind 290º 16kt. Gust 28kt.
With 30% probability, Temporarly from till Wind 310º 20kt. Gust 34kt. Visibility 7000m. Showers Rain . Broken Clouds 2000ft.

Ανεπεξέργαστο: TAF LKPR 271700Z 2718/2900 27010KT 9999 BKN025 BECMG 2718/2720 29008KT 9999 SCT045 TEMPO 2805/2818 29016G28KT PROB30 TEMPO 2807/2816 31020G34KT 7000 SHRA BKN020

Ραντάρ και πρόγνωση υετού μικρής διάρκειας για 50.1°Β 14.27°Α

Ψιλοβρέχει
Φως
Μέτρια
Βαριά
Πολύ βαρύ
Χαλάζι

Ο δείκτης θέσης τοποθετείται στο 50.1°Β 14.27°Α. Αυτή η κινούμενη εικόνα δείχνει την ραντάρ βροχόπτωσης για την τελευταία ώρα, καθώς και 1πρόγνωση h. Το ψιλόβροχο ή το ελαφρύ χιόνι μπορεί να είναι αόρατο για το ραντάρ. Η ένταση της βροχόπτωσης είναι χρωματικά κωδικοποιημένη και κυμαίνεται από γαλάζιο έως πορτοκαλί.

Τρέχουσες εικόνες δορυφόρου και βροχής για 50.1°Β 14.27°Α

Η ένδειξη τοποθεσίας τοποθετείται στο 50.1°Β 14.27°Α. [Περισσότερο]

Οι δορυφορικές εικόνες σε πραγματικό χρόνο συνδυάζουν ορατό φως κατά τη διάρκεια της ημέρας με υπέρυθρη ακτινοβολία κατά τη διάρκεια της νύχτας. Κατά τη διάρκεια της νύχτας, η εικόνα δεν είναι σκοτεινή μιας και η υπέρυθρη ακτινοβολία μπορεί να εντοπίσει τις διαφορές στη θερμοκρασία. Δυστυχώς, είναι δύσκολο να ξεχωρίσουν οι χαμηλές νεφώσεις και η ομίχλη από τις θερμοκρασίες εδάφους και έτσι μπορεί να είναι σχετικά αόρατα κατά τη διάρκεια της νύχτας. Οι εικόνες από τον δορυφόρο Meteosat για την Ευρώπη ενημερώνονται σε πραγματικό χρόνο κάθε 5 λεπτά. Οι εικόνες από τους δορυφόρους GOES-16/GOES-17 (Βόρεια & Λατινική Αμερική) και Himawari (Ασία) ενημερώνονται κάθε 10 λεπτά.

Ο υετός υπολογίζεται από ραντάρ και δορυφόρους. Η εκτιμήση του υετού από δορυφόρους τη νύχτα είναι λιγότερο ακριβής από ό,τι την ημέρα. Με πορτοκαλί σταυροούς οι θέσεις όπου αστραπές εντοπίζονται (για Ευρώπη).

Πνευματική ιδιοκτησία 2022 EUMETSAT / meteoblue. Δεδομένα αστραπών παρεχόμενα από nowcast.

Επιστροφή στην κορυφή